Terminal Aerodrome Forecast
Issued by NWS

Home | Current Version | Previous Version | Text Only | Print | Product List | Glossary Off
Versions: 1 2 3 4 5 6 7 8 9 10 11 12 13 14 15 16 17 18 19 20 21 22 23 24 25 26 27 28 29 30 31

000
FTUS43 KLOT 170800 AAA
TAFDPA
TAF AMD
KDPA 170857Z 1709/1806 29012G17KT P6SM OVC014
     FM171300 29012G17KT P6SM OVC017
     FM171800 29010G15KT P6SM BKN025
     FM180000 31007KT P6SM SCT025=

USA.gov is the U.S. government's official web portal to all federal, state and local government web resources and services.